Time;durP1;ratioP1;P1;durP2;ratioP2;P2;SDS_P1;SDS_P2;PMS_P1;PMS_P2;Temp;Humidity;BMP_temperature;BMP_pressure;BME280_temperature;BME280_humidity;BME280_pressure;Samples;Min_cycle;Max_cycle;Signal;HPM_P1;HPM_P2
2024/03/03 00:01:29;;;;;;;4.93;3.63;;;11.60;99.90;;;;;;5034744;28;20834;-72
2024/03/03 00:03:55;;;;;;;4.00;3.37;;;11.60;99.90;;;;;;5034475;28;20662;-71
2024/03/03 00:06:20;;;;;;;4.13;3.70;;;11.60;99.90;;;;;;5033956;28;20919;-72
2024/03/03 00:08:46;;;;;;;4.27;3.70;;;11.60;99.90;;;;;;5035081;28;20876;-70
2024/03/03 00:11:11;;;;;;;4.50;3.57;;;11.60;99.90;;;;;;5033850;28;20229;-69
2024/03/03 00:13:38;;;;;;;5.20;3.57;;;11.60;99.90;;;;;;5035817;28;20182;-68
2024/03/03 00:16:06;;;;;;;5.10;4.10;;;11.60;99.90;;;;;;5033325;28;20268;-70
2024/03/03 00:18:37;;;;;;;4.07;3.60;;;11.60;99.90;;;;;;5034811;28;20544;-74
2024/03/03 00:21:04;;;;;;;4.57;4.00;;;11.60;99.90;;;;;;5034557;28;20425;-72
2024/03/03 00:23:30;;;;;;;4.93;3.13;;;11.60;99.90;;;;;;5034982;28;21138;-69
2024/03/03 00:25:56;;;;;;;5.70;3.37;;;11.70;99.90;;;;;;5035418;28;20436;-68
2024/03/03 00:28:21;;;;;;;3.07;2.73;;;11.70;99.90;;;;;;5034288;28;20209;-70
2024/03/03 00:30:47;;;;;;;3.20;2.90;;;11.80;99.90;;;;;;5035576;28;20225;-69
2024/03/03 00:33:14;;;;;;;4.70;2.90;;;11.70;99.90;;;;;;5032502;28;20186;-72
2024/03/03 00:35:40;;;;;;;4.57;3.90;;;11.70;99.90;;;;;;5033479;28;20220;-66
2024/03/03 00:38:06;;;;;;;3.57;2.57;;;11.70;99.90;;;;;;5032531;28;20483;-69
2024/03/03 00:40:32;;;;;;;4.43;3.27;;;11.70;99.90;;;;;;5031967;28;20891;-73
2024/03/03 00:42:58;;;;;;;5.33;2.73;;;11.70;99.90;;;;;;5033479;28;20178;-70
2024/03/03 00:45:24;;;;;;;4.60;3.20;;;11.80;99.90;;;;;;5033116;28;20960;-70
2024/03/03 00:47:49;;;;;;;3.60;3.10;;;11.80;99.90;;;;;;5032685;28;20444;-69
2024/03/03 00:50:15;;;;;;;3.47;2.70;;;11.80;99.90;;;;;;5033028;28;20636;-75
2024/03/03 00:52:41;;;;;;;6.50;2.87;;;11.80;99.90;;;;;;5033218;28;20524;-73
2024/03/03 00:55:07;;;;;;;5.83;3.07;;;11.80;99.90;;;;;;5032522;28;20419;-72
2024/03/03 00:57:33;;;;;;;5.23;3.07;;;11.80;99.90;;;;;;5032376;28;20198;-70
2024/03/03 00:59:59;;;;;;;4.27;2.97;;;11.80;99.90;;;;;;5033515;28;20934;-73
2024/03/03 01:02:24;;;;;;;3.40;2.40;;;11.80;99.90;;;;;;5032150;28;20760;-73
2024/03/03 01:04:50;;;;;;;3.40;2.50;;;11.80;99.90;;;;;;5033246;28;20544;-68
2024/03/03 01:07:16;;;;;;;2.73;2.53;;;11.70;99.90;;;;;;5032722;28;20962;-70
2024/03/03 01:09:42;;;;;;;5.60;2.97;;;11.70;99.90;;;;;;5033960;28;20186;-73
2024/03/03 01:12:08;;;;;;;4.10;2.60;;;11.80;99.90;;;;;;5032794;28;20822;-70
2024/03/03 01:14:33;;;;;;;5.27;2.40;;;11.80;99.90;;;;;;5033148;28;20265;-70
2024/03/03 01:16:59;;;;;;;3.10;2.70;;;11.70;99.90;;;;;;5032540;28;20770;-69
2024/03/03 01:19:25;;;;;;;4.73;2.70;;;11.60;99.90;;;;;;5032290;28;20651;-70
2024/03/03 01:21:50;;;;;;;3.90;2.67;;;11.60;99.90;;;;;;5032202;28;20660;-71
2024/03/03 01:24:16;;;;;;;3.80;2.90;;;11.50;99.90;;;;;;5033286;28;20268;-73
2024/03/03 01:26:42;;;;;;;3.60;2.50;;;11.60;99.90;;;;;;5033101;28;20182;-68
2024/03/03 01:29:07;;;;;;;4.10;2.80;;;11.50;99.90;;;;;;5033758;28;20805;-69
2024/03/03 01:31:33;;;;;;;2.60;2.20;;;11.60;99.90;;;;;;5031013;28;20263;-71
2024/03/03 01:33:59;;;;;;;4.43;2.50;;;11.50;99.90;;;;;;5033005;28;20192;-70
2024/03/03 01:36:26;;;;;;;4.13;2.97;;;11.50;99.90;;;;;;5032848;28;21014;-73
2024/03/03 01:38:52;;;;;;;3.43;2.73;;;11.50;99.90;;;;;;5032596;28;20240;-73
2024/03/03 01:41:18;;;;;;;3.80;3.10;;;11.40;99.90;;;;;;5033129;28;21193;-74
2024/03/03 01:43:44;;;;;;;4.10;2.53;;;11.50;99.90;;;;;;5033653;28;20779;-74
2024/03/03 01:46:10;;;;;;;4.40;3.57;;;11.40;99.90;;;;;;5031886;28;20185;-75
2024/03/03 01:48:36;;;;;;;6.83;3.07;;;11.50;99.90;;;;;;5032608;28;20206;-74
2024/03/03 01:51:04;;;;;;;4.30;3.20;;;11.50;99.90;;;;;;5034067;28;20425;-74
2024/03/03 01:53:31;;;;;;;5.50;3.50;;;11.40;99.90;;;;;;5037547;28;20455;-74
2024/03/03 01:55:58;;;;;;;3.90;2.80;;;11.40;99.90;;;;;;5035412;28;20516;-69
2024/03/03 01:58:26;;;;;;;5.63;3.53;;;11.40;99.90;;;;;;5036592;28;20444;-74
2024/03/03 02:00:52;;;;;;;3.70;3.30;;;11.40;99.90;;;;;;5035220;28;20432;-70
2024/03/03 02:03:19;;;;;;;6.33;2.90;;;11.40;99.90;;;;;;5037344;28;21017;-70
2024/03/03 02:05:45;;;;;;;6.10;3.47;;;11.40;99.90;;;;;;5034393;28;21230;-72
2024/03/03 02:08:11;;;;;;;5.73;3.57;;;11.40;99.90;;;;;;5035771;28;21037;-71
2024/03/03 02:10:38;;;;;;;4.90;3.70;;;11.40;99.90;;;;;;5036491;28;20424;-67
2024/03/03 02:13:03;;;;;;;4.03;3.37;;;11.40;99.90;;;;;;5035877;28;20881;-71
2024/03/03 02:15:29;;;;;;;3.67;3.37;;;11.40;99.90;;;;;;5035933;28;20570;-73
2024/03/03 02:17:55;;;;;;;4.30;3.47;;;11.40;99.90;;;;;;5035906;28;20182;-70
2024/03/03 02:20:23;;;;;;;5.43;4.70;;;11.40;99.90;;;;;;5035728;28;20534;-71
2024/03/03 02:22:49;;;;;;;4.63;3.87;;;11.40;99.90;;;;;;5036199;28;20490;-72
2024/03/03 02:25:15;;;;;;;5.70;4.20;;;11.40;99.90;;;;;;5036168;28;20454;-70
2024/03/03 02:27:41;;;;;;;4.93;4.07;;;11.30;99.90;;;;;;5036109;28;20425;-74
2024/03/03 02:30:08;;;;;;;5.33;4.63;;;11.30;99.90;;;;;;5036330;28;20428;-72
2024/03/03 02:32:34;;;;;;;5.30;4.80;;;11.30;99.90;;;;;;5036738;28;20780;-69
2024/03/03 02:35:00;;;;;;;6.13;4.77;;;11.30;99.90;;;;;;5035650;28;20429;-70
2024/03/03 02:37:25;;;;;;;6.03;4.40;;;11.30;99.90;;;;;;5036542;28;20459;-72
2024/03/03 02:39:51;;;;;;;7.83;4.90;;;11.40;99.90;;;;;;5035288;28;20190;-69
2024/03/03 02:42:17;;;;;;;6.33;4.90;;;11.30;99.90;;;;;;5036040;28;20234;-73
2024/03/03 02:44:42;;;;;;;5.50;4.30;;;11.30;99.90;;;;;;5035941;28;20244;-71
2024/03/03 02:47:08;;;;;;;5.83;4.77;;;11.30;99.90;;;;;;5034025;28;20189;-74
2024/03/03 02:49:34;;;;;;;6.10;5.50;;;11.30;99.90;;;;;;5035108;28;20193;-70
2024/03/03 02:51:59;;;;;;;8.90;4.90;;;11.30;99.90;;;;;;5035909;28;21008;-70
2024/03/03 02:54:25;;;;;;;6.00;4.23;;;11.40;99.90;;;;;;5036362;28;20183;-72
2024/03/03 02:56:51;;;;;;;7.60;5.23;;;11.30;99.90;;;;;;5034271;28;20724;-72
2024/03/03 02:59:17;;;;;;;6.90;5.03;;;11.30;99.90;;;;;;5035737;28;20182;-68
2024/03/03 03:01:43;;;;;;;8.20;5.73;;;11.30;99.90;;;;;;5034972;28;20906;-68
2024/03/03 03:04:08;;;;;;;7.83;5.53;;;11.30;99.90;;;;;;5035858;28;20955;-71
2024/03/03 03:06:34;;;;;;;6.73;5.37;;;11.20;99.90;;;;;;5035708;28;20264;-71
2024/03/03 03:09:00;;;;;;;7.00;4.93;;;11.30;99.90;;;;;;5035545;28;20248;-71
2024/03/03 03:11:26;;;;;;;7.40;5.27;;;11.30;99.90;;;;;;5035346;28;20182;-72
2024/03/03 03:13:52;;;;;;;7.90;5.80;;;11.30;99.90;;;;;;5034976;28;20267;-68
2024/03/03 03:16:18;;;;;;;5.70;5.10;;;11.40;99.90;;;;;;5035786;28;20296;-70
2024/03/03 03:18:44;;;;;;;6.87;4.77;;;11.40;99.90;;;;;;5035340;28;20617;-74
2024/03/03 03:21:10;;;;;;;6.30;5.23;;;11.50;99.90;;;;;;5035646;28;20189;-72
2024/03/03 03:23:35;;;;;;;10.13;6.00;;;11.50;99.90;;;;;;5036000;28;20181;-68
2024/03/03 03:26:01;;;;;;;7.47;5.30;;;11.50;99.90;;;;;;5035683;28;20239;-70
2024/03/03 03:28:27;;;;;;;8.73;5.60;;;11.50;99.90;;;;;;5034562;28;20190;-71
2024/03/03 03:30:53;;;;;;;7.30;5.47;;;11.40;99.90;;;;;;5033794;28;20761;-72
2024/03/03 03:33:18;;;;;;;6.40;5.20;;;11.50;99.90;;;;;;5035187;28;20433;-67
2024/03/03 03:35:44;;;;;;;8.33;5.23;;;11.50;99.90;;;;;;5035449;28;20935;-69
2024/03/03 03:38:10;;;;;;;11.60;5.50;;;11.60;99.90;;;;;;5035703;28;20198;-67
2024/03/03 03:40:35;;;;;;;9.83;5.40;;;11.50;99.90;;;;;;5035320;28;20548;-70
2024/03/03 03:43:05;;;;;;;6.60;5.50;;;11.60;99.90;;;;;;5035537;28;20260;-70
2024/03/03 03:45:32;;;;;;;7.53;5.73;;;11.60;99.90;;;;;;5035423;28;20582;-71
2024/03/03 03:47:57;;;;;;;6.40;5.73;;;11.70;99.90;;;;;;5034107;28;20476;-73
2024/03/03 03:50:23;;;;;;;9.63;5.73;;;11.70;99.90;;;;;;5035239;28;20521;-76
2024/03/03 03:52:49;;;;;;;7.80;5.03;;;11.70;99.90;;;;;;5034667;28;20225;-70
2024/03/03 03:55:15;;;;;;;5.80;5.20;;;11.70;99.90;;;;;;5034894;28;20214;-69
2024/03/03 03:57:40;;;;;;;5.60;4.63;;;11.70;99.90;;;;;;5034996;28;20735;-72
2024/03/03 04:00:09;;;;;;;10.73;5.70;;;11.80;99.90;;;;;;5034821;28;20193;-72
2024/03/03 04:02:35;;;;;;;9.73;5.80;;;11.70;99.90;;;;;;5034556;28;20277;-69
2024/03/03 04:05:01;;;;;;;6.00;4.30;;;11.70;99.90;;;;;;5034625;28;20503;-68
2024/03/03 04:07:27;;;;;;;5.37;4.80;;;11.70;99.90;;;;;;5033723;28;20442;-72
2024/03/03 04:09:53;;;;;;;6.30;5.30;;;11.70;99.90;;;;;;5034821;28;20433;-72
2024/03/03 04:12:19;;;;;;;8.47;5.20;;;11.70;99.90;;;;;;5034616;28;20201;-69
2024/03/03 04:14:44;;;;;;;5.13;4.63;;;11.70;99.90;;;;;;5034364;28;20183;-72
2024/03/03 04:17:10;;;;;;;6.50;5.13;;;11.60;99.90;;;;;;5034651;28;20217;-69
2024/03/03 04:19:38;;;;;;;6.03;4.10;;;11.60;99.90;;;;;;5035293;28;20650;-69
2024/03/03 04:22:04;;;;;;;8.87;4.00;;;11.60;99.90;;;;;;5034816;28;20192;-72
2024/03/03 04:24:29;;;;;;;4.83;4.17;;;11.50;99.90;;;;;;5035251;28;20420;-70
2024/03/03 04:26:55;;;;;;;5.47;4.33;;;11.50;99.90;;;;;;5032572;28;20192;-73
2024/03/03 04:29:21;;;;;;;10.40;4.63;;;11.40;99.90;;;;;;5034642;28;20178;-72
2024/03/03 04:31:46;;;;;;;8.73;4.17;;;11.40;99.90;;;;;;5033617;28;20192;-69
2024/03/03 04:34:12;;;;;;;6.40;3.60;;;11.30;99.90;;;;;;5033897;28;20901;-74
2024/03/03 04:36:44;;;;;;;6.30;4.50;;;11.30;99.90;;;;;;5034010;28;20213;-73
2024/03/03 04:39:09;;;;;;;4.40;3.97;;;11.20;99.90;;;;;;5034375;28;20211;-72
2024/03/03 04:41:35;;;;;;;4.33;3.93;;;11.10;99.90;;;;;;5032737;28;20471;-67
2024/03/03 04:44:01;;;;;;;6.30;4.13;;;11.00;99.90;;;;;;5034512;28;20178;-67
2024/03/03 04:46:26;;;;;;;5.57;4.37;;;11.00;99.90;;;;;;5033846;28;20268;-69
2024/03/03 04:48:52;;;;;;;4.90;3.97;;;10.90;99.90;;;;;;5032718;28;20205;-71
2024/03/03 04:51:18;;;;;;;4.87;3.83;;;10.90;99.90;;;;;;5033191;28;20328;-69
2024/03/03 04:53:43;;;;;;;4.93;4.30;;;10.80;99.90;;;;;;5033953;28;20189;-70
2024/03/03 04:56:09;;;;;;;5.80;3.83;;;10.80;99.90;;;;;;5034342;28;20212;-71
2024/03/03 04:58:35;;;;;;;7.37;4.50;;;10.80;99.90;;;;;;5033715;28;20831;-70
2024/03/03 05:01:00;;;;;;;5.63;4.53;;;10.80;99.90;;;;;;5033837;28;20294;-73
2024/03/03 05:03:26;;;;;;;5.73;4.63;;;10.80;99.90;;;;;;5034311;28;20564;-71
2024/03/03 05:05:52;;;;;;;5.87;5.10;;;10.70;99.90;;;;;;5034026;28;20188;-72
2024/03/03 05:08:17;;;;;;;7.00;5.13;;;10.70;99.90;;;;;;5032770;28;20790;-68
2024/03/03 05:10:43;;;;;;;8.83;6.43;;;10.70;99.90;;;;;;5033613;28;20255;-71
2024/03/03 05:13:09;;;;;;;9.23;5.77;;;10.70;99.90;;;;;;5034198;28;20213;-69
2024/03/03 05:15:34;;;;;;;7.83;5.97;;;10.70;99.90;;;;;;5033258;28;20194;-70
2024/03/03 05:18:00;;;;;;;8.03;6.00;;;10.70;99.90;;;;;;5033887;28;20346;-73
2024/03/03 05:20:26;;;;;;;9.60;6.10;;;10.80;99.90;;;;;;5033674;28;20193;-71
2024/03/03 05:22:52;;;;;;;9.27;6.40;;;10.80;99.90;;;;;;5034026;28;20196;-74
2024/03/03 05:25:18;;;;;;;8.17;5.97;;;10.80;99.90;;;;;;5033083;28;20181;-68
2024/03/03 05:27:44;;;;;;;7.97;6.10;;;10.80;99.90;;;;;;5037608;28;21081;-71
2024/03/03 05:30:10;;;;;;;7.83;6.97;;;10.80;99.90;;;;;;5037905;28;20185;-74
2024/03/03 05:32:36;;;;;;;7.93;5.70;;;10.80;99.90;;;;;;5037004;28;20183;-67
2024/03/03 05:35:01;;;;;;;7.60;6.80;;;10.80;99.90;;;;;;5036582;28;20779;-68
2024/03/03 05:37:27;;;;;;;10.50;7.00;;;10.90;99.90;;;;;;5037490;28;20222;-66
2024/03/03 05:39:52;;;;;;;12.03;6.67;;;10.90;99.90;;;;;;5036769;28;20241;-68
2024/03/03 05:42:18;;;;;;;7.53;6.43;;;10.90;99.90;;;;;;5037067;28;20185;-68
2024/03/03 05:44:44;;;;;;;8.77;6.53;;;11.00;99.90;;;;;;5037987;28;20212;-70
2024/03/03 05:47:10;;;;;;;9.93;6.23;;;11.00;99.90;;;;;;5037620;28;20184;-70
2024/03/03 05:49:38;;;;;;;9.20;6.57;;;10.90;99.90;;;;;;5037120;28;20429;-67
2024/03/03 05:52:04;;;;;;;8.57;7.10;;;10.90;99.90;;;;;;5037109;28;20203;-69
2024/03/03 05:54:30;;;;;;;7.20;6.13;;;10.90;99.90;;;;;;5037159;28;20432;-71
2024/03/03 05:56:55;;;;;;;6.43;5.83;;;11.00;99.90;;;;;;5036991;28;20228;-73
2024/03/03 05:59:21;;;;;;;8.53;6.10;;;10.90;99.90;;;;;;5037255;28;20182;-72
2024/03/03 06:01:51;;;;;;;11.30;7.30;;;10.90;99.90;;;;;;5036701;28;20592;-66
2024/03/03 06:04:18;;;;;;;8.83;6.83;;;10.90;99.90;;;;;;5036877;28;20182;-69
2024/03/03 06:06:45;;;;;;;8.97;7.37;;;10.90;99.90;;;;;;5036461;28;20445;-70
2024/03/03 06:09:12;;;;;;;10.10;6.87;;;10.90;99.90;;;;;;5037355;28;20428;-70
2024/03/03 06:11:42;;;;;;;9.10;6.80;;;10.90;99.90;;;;;;5036272;28;20536;-67
2024/03/03 06:14:08;;;;;;;7.83;6.40;;;11.00;99.90;;;;;;5036929;28;20433;-70
2024/03/03 06:16:37;;;;;;;7.83;6.00;;;11.00;99.90;;;;;;5035677;28;20579;-68
2024/03/03 06:19:03;;;;;;;8.10;6.40;;;11.00;99.90;;;;;;5036277;28;20433;-69
2024/03/03 06:21:30;;;;;;;8.40;5.87;;;11.00;99.90;;;;;;5036526;28;20420;-68
2024/03/03 06:23:56;;;;;;;7.60;5.97;;;11.00;99.90;;;;;;5037637;28;20516;-73
2024/03/03 06:26:24;;;;;;;6.77;5.63;;;10.90;99.90;;;;;;5069462;28;21083;-70
2024/03/03 06:28:52;;;;;;;12.70;6.97;;;10.90;99.90;;;;;;5036266;28;20416;-72
2024/03/03 06:31:18;;;;;;;7.60;6.13;;;10.90;99.90;;;;;;5036573;28;20425;-74
2024/03/03 06:33:44;;;;;;;7.63;6.13;;;10.90;99.90;;;;;;5036222;28;20938;-69
2024/03/03 06:36:16;;;;;;;9.07;6.53;;;10.80;99.90;;;;;;5035393;28;20209;-72
2024/03/03 06:38:42;;;;;;;8.73;6.60;;;10.80;99.90;;;;;;5035495;28;20243;-68
2024/03/03 06:41:07;;;;;;;9.17;7.10;;;10.80;99.90;;;;;;5036714;28;20506;-67
2024/03/03 06:43:33;;;;;;;8.03;6.63;;;10.80;99.90;;;;;;5036299;28;21179;-70
2024/03/03 06:45:58;;;;;;;9.67;6.80;;;10.80;99.90;;;;;;5036457;28;20232;-69
2024/03/03 06:48:24;;;;;;;10.50;7.77;;;10.70;99.90;;;;;;5036698;28;20213;-69
2024/03/03 06:50:50;;;;;;;7.63;6.20;;;10.70;99.90;;;;;;5036459;28;20527;-68
2024/03/03 06:53:15;;;;;;;9.07;6.77;;;10.70;99.90;;;;;;5033369;28;20201;-71
2024/03/03 06:55:41;;;;;;;8.50;6.83;;;10.70;99.90;;;;;;5033797;28;20201;-73
2024/03/03 06:58:08;;;;;;;8.17;7.30;;;10.70;99.90;;;;;;5030849;28;20571;-66
2024/03/03 07:00:34;;;;;;;8.67;7.13;;;10.70;99.90;;;;;;5033073;28;20188;-70
2024/03/03 07:05:35;;;;;;;9.50;7.50;;;10.70;99.90;;;;;;5036103;28;20615;-74
2024/03/03 07:08:02;;;;;;;9.20;7.90;;;10.70;99.90;;;;;;5031375;28;20497;-72
2024/03/03 07:10:29;;;;;;;8.63;7.27;;;10.80;99.90;;;;;;5034131;28;20440;-68
2024/03/03 07:12:56;;;;;;;11.40;7.67;;;10.80;99.90;;;;;;5035893;28;20498;-69
2024/03/03 07:15:22;;;;;;;9.20;6.80;;;10.80;99.90;;;;;;5033174;28;20428;-71
2024/03/03 07:17:48;;;;;;;10.03;9.00;;;10.80;99.90;;;;;;5033077;28;20473;-70
2024/03/03 07:20:14;;;;;;;11.73;8.20;;;10.80;99.90;;;;;;5031227;28;20906;-70
2024/03/03 07:22:40;;;;;;;9.03;8.07;;;10.80;99.90;;;;;;5033296;28;20432;-71
2024/03/03 07:25:06;;;;;;;9.07;8.10;;;10.90;99.90;;;;;;5035380;28;20464;-71
2024/03/03 07:27:32;;;;;;;11.50;7.70;;;10.90;99.90;;;;;;5035108;28;20190;-70
2024/03/03 07:29:58;;;;;;;10.10;8.00;;;10.80;99.90;;;;;;5031675;28;21146;-71
2024/03/03 07:32:28;;;;;;;11.20;8.97;;;10.90;99.90;;;;;;5031062;28;20192;-71
2024/03/03 07:34:57;;;;;;;9.90;7.93;;;10.90;99.90;;;;;;5035388;28;20273;-71
2024/03/03 07:37:23;;;;;;;10.93;8.23;;;10.80;99.90;;;;;;5034062;28;20824;-71
2024/03/03 07:39:48;;;;;;;10.77;8.70;;;10.80;99.90;;;;;;5033938;28;20437;-70
2024/03/03 07:42:14;;;;;;;13.97;9.77;;;10.80;99.90;;;;;;5034506;28;20201;-70
2024/03/03 07:44:40;;;;;;;9.73;8.03;;;10.90;99.90;;;;;;5035007;28;20688;-71
2024/03/03 07:47:05;;;;;;;10.73;8.87;;;10.90;99.90;;;;;;5034504;28;20681;-70
2024/03/03 07:49:32;;;;;;;10.53;8.40;;;10.90;99.90;;;;;;5035227;28;20209;-71
2024/03/03 07:51:57;;;;;;;11.23;8.90;;;11.00;99.90;;;;;;5036652;28;20190;-70
2024/03/03 07:54:23;;;;;;;11.90;8.80;;;11.00;99.90;;;;;;5035846;28;20509;-70
2024/03/03 07:56:49;;;;;;;13.13;8.60;;;11.00;99.90;;;;;;5035331;28;20214;-71
2024/03/03 07:59:14;;;;;;;10.67;9.07;;;11.00;99.90;;;;;;5034729;28;20264;-70
2024/03/03 08:01:40;;;;;;;9.83;8.30;;;11.10;99.90;;;;;;5033206;28;20257;-71
2024/03/03 08:04:15;;;;;;;10.20;8.13;;;11.10;99.90;;;;;;5035436;28;20187;-71
2024/03/03 08:06:41;;;;;;;11.17;8.53;;;11.10;99.90;;;;;;5004866;28;20191;-70
2024/03/03 08:09:06;;;;;;;10.30;7.80;;;11.20;99.90;;;;;;5031886;28;20642;-71
2024/03/03 08:11:33;;;;;;;8.93;8.03;;;11.10;99.90;;;;;;5032942;28;20793;-70
2024/03/03 08:13:59;;;;;;;9.60;7.80;;;11.20;99.90;;;;;;5034083;28;20785;-70
2024/03/03 08:16:25;;;;;;;10.47;9.00;;;11.20;99.90;;;;;;5035381;28;20468;-71
2024/03/03 08:18:51;;;;;;;10.30;7.93;;;11.20;99.90;;;;;;5033462;28;20441;-71
2024/03/03 08:21:17;;;;;;;12.90;8.40;;;11.30;99.90;;;;;;5032152;28;20834;-70
2024/03/03 08:23:43;;;;;;;9.23;8.10;;;11.40;99.90;;;;;;5032627;28;20440;-71
2024/03/03 08:26:14;;;;;;;14.60;7.80;;;11.40;99.90;;;;;;5033831;28;20177;-71
2024/03/03 08:28:40;;;;;;;11.53;9.10;;;11.50;99.90;;;;;;5035497;28;21224;-70
2024/03/03 08:31:05;;;;;;;10.90;8.83;;;11.60;99.90;;;;;;5033431;28;20424;-71
2024/03/03 08:33:31;;;;;;;11.80;9.30;;;11.60;99.90;;;;;;5034089;28;20656;-70
2024/03/03 08:35:57;;;;;;;10.73;7.90;;;11.70;99.90;;;;;;5032290;28;20217;-70
2024/03/03 08:38:23;;;;;;;12.00;8.50;;;11.80;99.90;;;;;;5033194;28;20461;-69
2024/03/03 08:40:48;;;;;;;12.90;8.70;;;11.90;99.90;;;;;;5034473;28;20216;-70
2024/03/03 08:43:15;;;;;;;10.83;9.03;;;11.90;99.90;;;;;;5033475;28;20536;-70
2024/03/03 08:45:41;;;;;;;12.27;9.17;;;12.00;99.90;;;;;;5035095;28;20268;-70
2024/03/03 08:48:07;;;;;;;11.37;9.40;;;12.10;99.90;;;;;;5032294;28;20448;-70
2024/03/03 08:50:34;;;;;;;10.60;9.20;;;12.20;99.90;;;;;;5034422;28;20189;-69
2024/03/03 08:53:00;;;;;;;9.67;8.33;;;12.30;99.90;;;;;;5032919;28;20960;-70
2024/03/03 08:55:25;;;;;;;11.20;8.80;;;12.40;99.90;;;;;;5034369;28;20428;-70
2024/03/03 08:57:51;;;;;;;12.60;9.10;;;12.50;99.90;;;;;;5048773;28;20428;-70
2024/03/03 09:00:17;;;;;;;10.93;9.20;;;12.50;99.90;;;;;;5033029;28;20214;-70
2024/03/03 09:02:43;;;;;;;8.77;7.60;;;12.60;99.90;;;;;;5032469;28;20193;-70
2024/03/03 09:05:11;;;;;;;13.73;8.80;;;12.70;99.90;;;;;;5031484;28;21305;-69
2024/03/03 09:07:37;;;;;;;9.83;8.83;;;12.80;99.90;;;;;;5032946;28;20272;-70
2024/03/03 09:10:06;;;;;;;9.60;8.23;;;12.90;99.90;;;;;;5033295;28;20462;-70
2024/03/03 09:12:32;;;;;;;11.73;8.00;;;13.10;99.90;;;;;;5032698;28;20862;-70
2024/03/03 09:15:00;;;;;;;9.43;8.03;;;13.20;99.90;;;;;;5033927;28;20455;-70
2024/03/03 09:17:25;;;;;;;9.77;8.73;;;13.40;99.90;;;;;;5034003;28;20825;-70
2024/03/03 09:19:51;;;;;;;11.20;7.97;;;13.50;99.90;;;;;;5033738;28;20417;-71
2024/03/03 09:22:17;;;;;;;11.70;9.17;;;13.70;99.90;;;;;;5034641;28;20288;-70
2024/03/03 09:24:43;;;;;;;11.53;8.77;;;13.90;99.90;;;;;;5033728;28;20718;-71
2024/03/03 09:27:12;;;;;;;11.60;9.03;;;13.90;99.90;;;;;;5033028;28;20194;-70
2024/03/03 09:29:38;;;;;;;11.70;7.97;;;14.00;99.90;;;;;;5033038;28;20530;-71
2024/03/03 09:32:04;;;;;;;12.67;9.43;;;14.10;99.90;;;;;;5032148;28;20528;-71
2024/03/03 09:34:30;;;;;;;11.23;8.63;;;14.10;99.90;;;;;;5033694;28;20193;-70
2024/03/03 09:36:56;;;;;;;10.27;8.90;;;14.20;99.90;;;;;;5033240;28;20476;-71
2024/03/03 09:39:22;;;;;;;12.30;9.90;;;14.40;99.90;;;;;;5033249;28;20978;-70
2024/03/03 09:41:54;;;;;;;9.83;8.83;;;14.50;99.90;;;;;;5033732;28;20635;-71
2024/03/03 09:44:23;;;;;;;14.90;10.57;;;14.70;99.90;;;;;;5033855;28;20468;-70
2024/03/03 09:46:49;;;;;;;12.97;9.40;;;14.90;99.90;;;;;;5033191;28;20429;-70
2024/03/03 09:49:16;;;;;;;13.23;9.50;;;15.10;99.90;;;;;;5033254;28;20448;-71
2024/03/03 09:51:45;;;;;;;10.20;9.10;;;15.20;99.90;;;;;;5033205;28;20430;-71
2024/03/03 09:54:20;;;;;;;12.73;10.10;;;15.40;99.90;;;;;;5033144;28;21152;-71
2024/03/03 09:56:47;;;;;;;10.93;9.43;;;15.40;99.90;;;;;;5034034;28;20525;-70
2024/03/03 09:59:14;;;;;;;11.37;9.17;;;15.50;99.90;;;;;;5033094;28;20553;-71
2024/03/03 10:01:49;;;;;;;10.87;9.77;;;15.50;99.90;;;;;;5031333;28;20432;-71
2024/03/03 10:04:16;;;;;;;10.20;9.07;;;15.60;99.90;;;;;;5033071;28;20514;-71
2024/03/03 10:06:44;;;;;;;15.83;9.10;;;15.60;99.90;;;;;;5032820;28;20425;-71
2024/03/03 10:09:15;;;;;;;11.80;9.30;;;15.60;99.90;;;;;;5032961;28;20479;-71
2024/03/03 10:11:41;;;;;;;9.93;8.93;;;15.70;99.90;;;;;;5034905;28;20424;-71
2024/03/03 10:14:11;;;;;;;11.07;9.57;;;15.70;99.90;;;;;;5035985;28;20417;-71
2024/03/03 10:16:38;;;;;;;11.43;9.90;;;15.70;99.90;;;;;;5036693;28;20504;-71
2024/03/03 10:19:05;;;;;;;12.53;9.60;;;15.70;99.90;;;;;;5036757;28;20433;-71
2024/03/03 10:21:35;;;;;;;11.50;9.03;;;15.70;99.90;;;;;;5037088;28;20436;-71
2024/03/03 10:24:20;;;;;;;12.83;9.90;;;15.60;99.90;;;;;;5036485;28;20420;-70
2024/03/03 10:26:46;;;;;;;9.73;8.50;;;15.60;99.90;;;;;;5037080;28;20452;-71
2024/03/03 10:29:12;;;;;;;13.27;10.60;;;15.60;99.90;;;;;;5035939;28;20460;-71
2024/03/03 10:31:38;;;;;;;10.30;9.17;;;15.50;99.90;;;;;;5036726;28;20921;-71
2024/03/03 10:34:03;;;;;;;10.40;9.30;;;15.60;99.90;;;;;;5035851;28;20234;-70
2024/03/03 10:36:32;;;;;;;13.63;10.40;;;15.60;99.90;;;;;;5036329;28;20862;-70
2024/03/03 10:38:58;;;;;;;13.07;9.60;;;15.60;99.90;;;;;;5035691;28;20182;-71
2024/03/03 10:41:24;;;;;;;11.13;9.87;;;15.60;99.90;;;;;;5036679;28;20485;-71
2024/03/03 10:43:50;;;;;;;13.73;11.27;;;15.80;99.90;;;;;;5036311;28;20222;-71
2024/03/03 10:46:19;;;;;;;11.00;9.63;;;15.80;99.90;;;;;;5034643;28;20193;-73
2024/03/03 10:48:46;;;;;;;11.73;10.40;;;15.80;99.90;;;;;;5035994;28;20975;-71
2024/03/03 10:51:19;;;;;;;12.43;10.27;;;15.90;99.90;;;;;;5033724;28;20432;-71
2024/03/03 10:53:55;;;;;;;11.80;10.60;;;16.00;99.90;;;;;;5035896;28;20429;-71
2024/03/03 10:56:22;;;;;;;12.37;10.37;;;16.10;99.90;;;;;;5035803;28;20869;-71
2024/03/03 10:58:51;;;;;;;13.20;11.63;;;16.20;99.90;;;;;;5033989;28;20460;-70
2024/03/03 11:01:18;;;;;;;13.00;11.40;;;16.40;99.90;;;;;;5035948;28;20452;-69
2024/03/03 11:03:46;;;;;;;11.30;9.90;;;16.60;99.90;;;;;;5034956;28;20870;-69
2024/03/03 11:06:12;;;;;;;13.53;11.97;;;16.70;99.90;;;;;;5035228;28;20443;-70
2024/03/03 11:08:49;;;;;;;12.80;10.30;;;16.90;99.90;;;;;;5034902;28;20996;-69
2024/03/03 11:11:18;;;;;;;13.70;11.60;;;17.00;99.90;;;;;;5034759;28;20440;-69
2024/03/03 11:13:50;;;;;;;13.13;11.77;;;17.20;99.90;;;;;;5035357;28;20464;-71
2024/03/03 11:16:18;;;;;;;12.97;10.80;;;17.30;99.90;;;;;;5019460;28;20479;-70
2024/03/03 11:18:48;;;;;;;10.63;9.53;;;17.40;99.90;;;;;;5034481;28;20428;-70
2024/03/03 11:21:18;;;;;;;10.80;8.33;;;17.50;99.90;;;;;;5035088;28;20490;-70
2024/03/03 11:23:51;;;;;;;8.60;7.53;;;17.60;99.90;;;;;;5034536;28;20430;-71
2024/03/03 11:26:42;;;;;;;9.40;7.60;;;17.70;99.90;;;;;;5035373;28;20438;-71
2024/03/03 11:29:09;;;;;;;10.37;8.50;;;17.80;99.90;;;;;;5033093;28;20931;-70
2024/03/03 11:31:35;;;;;;;14.00;8.87;;;17.90;99.30;;;;;;5035524;28;20546;-70
2024/03/03 11:34:03;;;;;;;7.80;7.00;;;18.00;99.90;;;;;;5035118;28;20493;-70
2024/03/03 11:36:29;;;;;;;8.50;7.47;;;18.10;99.90;;;;;;5034180;28;20567;-71
2024/03/03 11:39:09;;;;;;;9.27;7.73;;;18.20;99.90;;;;;;5034968;28;20963;-71
2024/03/03 11:41:38;;;;;;;9.83;7.53;;;18.20;99.90;;;;;;5034761;28;20867;-71
2024/03/03 11:44:05;;;;;;;7.87;7.07;;;18.30;99.90;;;;;;5035420;28;20473;-70
2024/03/03 11:46:49;;;;;;;9.43;8.17;;;18.30;99.90;;;;;;5035284;28;20471;-70
2024/03/03 11:49:22;;;;;;;9.80;7.83;;;18.40;99.30;;;;;;5034703;28;20452;-70
2024/03/03 11:51:48;;;;;;;7.10;6.40;;;18.40;98.20;;;;;;5035402;28;21288;-71
2024/03/03 11:54:28;;;;;;;6.83;6.13;;;18.50;97.10;;;;;;5034069;28;20439;-71
2024/03/03 11:56:59;;;;;;;7.10;6.00;;;18.50;96.80;;;;;;5033675;28;20460;-70
2024/03/03 11:59:31;;;;;;;6.13;5.43;;;18.50;96.70;;;;;;5034700;28;21133;-70
2024/03/03 12:01:59;;;;;;;7.50;5.80;;;18.50;96.30;;;;;;5034780;28;20425;-70
2024/03/03 12:04:25;;;;;;;7.43;5.60;;;18.50;96.50;;;;;;5034396;28;20463;-71
2024/03/03 12:06:51;;;;;;;6.80;5.37;;;18.60;96.90;;;;;;5034488;28;20456;-71
2024/03/03 12:09:20;;;;;;;6.77;5.87;;;18.60;96.10;;;;;;5034320;28;20198;-71
2024/03/03 12:11:50;;;;;;;7.80;4.93;;;18.70;96.50;;;;;;5034018;28;20186;-70
2024/03/03 12:14:16;;;;;;;7.63;5.03;;;18.70;96.20;;;;;;5033750;28;20482;-70
2024/03/03 12:16:42;;;;;;;6.57;5.10;;;18.70;95.50;;;;;;5033651;28;20487;-71
2024/03/03 12:19:10;;;;;;;5.37;4.87;;;18.80;95.50;;;;;;5034789;28;20428;-70
2024/03/03 12:21:37;;;;;;;6.53;5.20;;;18.80;95.00;;;;;;5033536;28;20189;-71
2024/03/03 12:24:06;;;;;;;6.57;5.50;;;18.80;95.90;;;;;;5034756;28;20447;-71
2024/03/03 12:26:32;;;;;;;7.03;5.70;;;18.80;95.40;;;;;;5034348;28;20447;-70
2024/03/03 12:28:59;;;;;;;5.70;4.97;;;18.80;94.50;;;;;;5033357;28;20464;-71
2024/03/03 12:31:32;;;;;;;7.63;6.00;;;18.80;95.30;;;;;;5033266;28;20428;-71
2024/03/03 12:34:01;;;;;;;8.73;6.70;;;18.80;94.80;;;;;;5034869;28;20426;-71
2024/03/03 12:36:27;;;;;;;8.80;6.30;;;18.80;94.40;;;;;;5033253;28;21329;-71
2024/03/03 12:38:53;;;;;;;6.57;5.83;;;18.80;95.50;;;;;;5033446;28;20975;-71
2024/03/03 12:41:19;;;;;;;7.27;6.57;;;18.80;95.30;;;;;;5032780;28;20444;-71
2024/03/03 12:43:45;;;;;;;7.57;6.37;;;18.80;94.60;;;;;;5033571;28;20193;-71